Battle Harbour, Canada
Current Conditions -  °F | °C
As of 2:00 PM on Saturday 25 Oct 2014 (Local Time) from CYMH Reporting Station
Overcast Overcast  
Wind Chill: 28°   Ceiling: 2700
Heat Index: 37°   Visibility: 9mi
Dew Point: 27°   Wind: 17mph
Humidity: 65%   Direction: 50°NE
Pressure: 29.85"   Gusts: 25mph
Location:  52.27°N, 55.58°W
Report Text: CYMH 251700Z AUTO 05015G22KT 9SM OVC027 03/M03 A2985 RMK SLP108
Loading
Personal Weather Stations






























Interactive Weather Map
Tropical Storm Tracking
New forecast layout! Learn more

10-Day Weather Forecast

Advertisements
Track Severe Weather on mobile